Time,TemperatureF,DewpointF,PressureIn,WindDirection,WindDirectionDegrees,WindSpeedMPH,WindSpeedGustMPH,Humidity,HourlyPrecipIn,Conditions,Clouds,dailyrainin,SolarRadiationWatts/m^2,SoftwareType,DateUTC
2013-04-05 00:01:00,27.0,15.0,-100.00,North,5,2.0,6.0,61,0.00,,,0.00,0.000000,,2013-04-05 05:01:00,
2013-04-05 00:32:00,27.0,15.0,-100.00,North,5,2.0,6.0,61,0.00,,,0.00,0.000000,,2013-04-05 05:32:00,
2013-04-05 00:42:00,27.0,15.0,-100.00,North,5,2.0,6.0,61,0.00,,,0.00,0.000000,,2013-04-05 05:42:00,
2013-04-05 00:52:00,27.0,15.0,-100.00,North,5,2.0,6.0,61,0.00,,,0.00,0.000000,,2013-04-05 05:52:00,
2013-04-05 02:01:00,23.0,14.0,-100.00,NNW,345,2.0,7.0,67,-99.99,,,0.00,0.000000,,2013-04-05 07:01:00,
2013-04-05 02:23:00,23.0,14.0,-100.00,NNW,345,2.0,7.0,67,-99.99,,,0.00,0.000000,,2013-04-05 07:23:00,
2013-04-05 02:32:00,23.0,14.0,-100.00,NNW,345,2.0,7.0,67,-99.99,,,0.00,0.000000,,2013-04-05 07:32:00,
2013-04-05 02:42:00,23.0,14.0,-100.00,NNW,345,2.0,7.0,67,-99.99,,,0.00,0.000000,,2013-04-05 07:42:00,
2013-04-05 02:53:00,23.0,14.0,-100.00,NNW,345,2.0,7.0,67,-99.99,,,0.00,0.000000,,2013-04-05 07:53:00,
2013-04-05 03:01:00,18.0,11.0,-100.00,South,179,0.0,4.0,75,0.00,,,0.00,0.000000,,2013-04-05 08:01:00,
2013-04-05 03:23:00,18.0,11.0,-100.00,South,179,0.0,4.0,75,0.00,,,0.00,0.000000,,2013-04-05 08:23:00,
2013-04-05 03:33:00,18.0,11.0,-100.00,South,179,0.0,4.0,75,0.00,,,0.00,0.000000,,2013-04-05 08:33:00,
2013-04-05 03:43:00,18.0,11.0,-100.00,South,179,0.0,4.0,75,0.00,,,0.00,0.000000,,2013-04-05 08:43:00,
2013-04-05 03:52:00,18.0,11.0,-100.00,South,179,0.0,4.0,75,0.00,,,0.00,0.000000,,2013-04-05 08:52:00,
2013-04-05 05:01:00,11.0,7.0,-100.00,West,281,0.0,2.0,85,-99.99,,,0.00,0.000000,,2013-04-05 10:01:00,
2013-04-05 05:23:00,11.0,7.0,-100.00,West,281,0.0,2.0,85,-99.99,,,0.00,0.000000,,2013-04-05 10:23:00,
2013-04-05 05:33:00,11.0,7.0,-100.00,West,281,0.0,2.0,85,-99.99,,,0.00,0.000000,,2013-04-05 10:33:00,
2013-04-05 05:43:00,11.0,7.0,-100.00,West,281,0.0,2.0,85,-99.99,,,0.00,0.000000,,2013-04-05 10:43:00,
2013-04-05 05:53:00,11.0,7.0,-100.00,West,281,0.0,2.0,85,-99.99,,,0.00,0.000000,,2013-04-05 10:53:00,
2013-04-05 06:01:00,11.0,7.0,-100.00,WSW,254,0.0,2.0,85,0.00,,,0.00,0.000000,,2013-04-05 11:01:00,
2013-04-05 06:33:00,11.0,7.0,-100.00,WSW,254,0.0,2.0,85,0.00,,,0.00,0.000000,,2013-04-05 11:33:00,
2013-04-05 06:42:00,11.0,7.0,-100.00,WSW,254,0.0,2.0,85,0.00,,,0.00,0.000000,,2013-04-05 11:42:00,
2013-04-05 06:52:00,11.0,7.0,-100.00,WSW,254,0.0,2.0,85,0.00,,,0.00,0.000000,,2013-04-05 11:52:00,
2013-04-05 07:01:00,11.0,7.0,-100.00,WSW,257,0.0,2.0,84,0.00,,,0.00,9.000000,,2013-04-05 12:01:00,
2013-04-05 07:32:00,11.0,7.0,-100.00,WSW,257,0.0,2.0,84,0.00,,,0.00,9.000000,,2013-04-05 12:32:00,
2013-04-05 07:42:00,11.0,7.0,-100.00,WSW,257,0.0,2.0,84,0.00,,,0.00,9.000000,,2013-04-05 12:42:00,
2013-04-05 07:52:00,11.0,7.0,-100.00,WSW,257,0.0,2.0,84,0.00,,,0.00,9.000000,,2013-04-05 12:52:00,
2013-04-05 08:01:00,25.0,15.0,-100.00,ENE,68,4.0,7.0,66,0.00,,,0.00,140.000000,,2013-04-05 13:01:00,
2013-04-05 08:23:00,25.0,15.0,-100.00,ENE,68,4.0,7.0,66,0.00,,,0.00,140.000000,,2013-04-05 13:23:00,
2013-04-05 08:32:00,25.0,15.0,-100.00,ENE,68,4.0,7.0,66,0.00,,,0.00,140.000000,,2013-04-05 13:32:00,
2013-04-05 08:42:00,25.0,15.0,-100.00,ENE,68,4.0,7.0,66,0.00,,,0.00,140.000000,,2013-04-05 13:42:00,
2013-04-05 08:52:00,25.0,15.0,-100.00,ENE,68,4.0,7.0,66,0.00,,,0.00,140.000000,,2013-04-05 13:52:00,
2013-04-05 09:01:00,28.0,12.0,-100.00,ENE,70,6.0,12.0,51,0.00,,,0.00,340.000000,,2013-04-05 14:01:00,
2013-04-05 09:23:00,28.0,12.0,-100.00,ENE,70,6.0,12.0,51,0.00,,,0.00,340.000000,,2013-04-05 14:23:00,
2013-04-05 09:37:00,28.0,12.0,-100.00,ENE,70,6.0,12.0,51,0.00,,,0.00,340.000000,,2013-04-05 14:37:00,
2013-04-05 09:43:00,28.0,12.0,-100.00,ENE,70,6.0,12.0,51,0.00,,,0.00,340.000000,,2013-04-05 14:43:00,
2013-04-05 10:01:00,33.0,13.0,-100.00,ENE,67,3.0,10.0,43,0.00,,,0.00,552.000000,,2013-04-05 15:01:00,
2013-04-05 10:34:00,33.0,13.0,-100.00,ENE,67,3.0,10.0,43,0.00,,,0.00,552.000000,,2013-04-05 15:34:00,
2013-04-05 10:43:00,33.0,13.0,-100.00,ENE,67,3.0,10.0,43,0.00,,,0.00,552.000000,,2013-04-05 15:43:00,
2013-04-05 10:54:00,33.0,13.0,-100.00,ENE,67,3.0,10.0,43,0.00,,,0.00,552.000000,,2013-04-05 15:54:00,
2013-04-05 11:01:00,37.0,12.0,-100.00,South,184,2.0,9.0,35,0.00,,,0.00,716.000000,,2013-04-05 16:01:00,
2013-04-05 11:33:00,37.0,12.0,-100.00,South,184,2.0,9.0,35,0.00,,,0.00,716.000000,,2013-04-05 16:33:00,
2013-04-05 11:43:00,37.0,12.0,-100.00,South,184,2.0,9.0,35,0.00,,,0.00,716.000000,,2013-04-05 16:43:00,
2013-04-05 11:53:00,37.0,12.0,-100.00,South,184,2.0,9.0,35,0.00,,,0.00,716.000000,,2013-04-05 16:53:00,
2013-04-05 12:01:00,38.0,11.0,-100.00,SSE,158,4.0,11.0,32,0.00,,,0.00,836.000000,,2013-04-05 17:01:00,
2013-04-05 12:33:00,38.0,11.0,-100.00,SSE,158,4.0,11.0,32,0.00,,,0.00,836.000000,,2013-04-05 17:33:00,
2013-04-05 12:45:00,38.0,11.0,-100.00,SSE,158,4.0,11.0,32,0.00,,,0.00,836.000000,,2013-04-05 17:45:00,
2013-04-05 12:52:00,38.0,11.0,-100.00,SSE,158,4.0,11.0,32,0.00,,,0.00,836.000000,,2013-04-05 17:52:00,
2013-04-05 13:01:00,41.0,10.0,-100.00,East,95,3.0,11.0,28,0.00,,,0.00,904.000000,,2013-04-05 18:01:00,
2013-04-05 13:34:00,41.0,10.0,-100.00,East,95,3.0,11.0,28,0.00,,,0.00,904.000000,,2013-04-05 18:34:00,
2013-04-05 13:43:00,41.0,10.0,-100.00,East,95,3.0,11.0,28,0.00,,,0.00,904.000000,,2013-04-05 18:43:00,
2013-04-05 13:53:00,41.0,10.0,-100.00,East,95,3.0,11.0,28,0.00,,,0.00,904.000000,,2013-04-05 18:53:00,
2013-04-05 14:01:00,42.0,9.0,-100.00,NE,38,4.0,9.0,25,0.00,,,0.00,855.000000,,2013-04-05 19:01:00,
2013-04-05 14:33:00,42.0,9.0,-100.00,NE,38,4.0,9.0,25,0.00,,,0.00,855.000000,,2013-04-05 19:33:00,
2013-04-05 14:42:00,42.0,9.0,-100.00,NE,38,4.0,9.0,25,0.00,,,0.00,855.000000,,2013-04-05 19:42:00,
2013-04-05 14:53:00,42.0,9.0,-100.00,NE,38,4.0,9.0,25,0.00,,,0.00,855.000000,,2013-04-05 19:53:00,
2013-04-05 15:01:00,41.0,8.0,-100.00,West,280,4.0,8.0,25,0.00,,,0.00,637.000000,,2013-04-05 20:01:00,
2013-04-05 15:33:00,41.0,8.0,-100.00,West,280,4.0,8.0,25,0.00,,,0.00,637.000000,,2013-04-05 20:33:00,
2013-04-05 15:43:00,41.0,8.0,-100.00,West,280,4.0,8.0,25,0.00,,,0.00,637.000000,,2013-04-05 20:43:00,
2013-04-05 15:52:00,41.0,8.0,-100.00,West,280,4.0,8.0,25,0.00,,,0.00,637.000000,,2013-04-05 20:52:00,
2013-04-05 16:01:00,42.0,6.0,-100.00,NNE,17,3.0,9.0,22,0.00,,,0.00,636.000000,,2013-04-05 21:01:00,
2013-04-05 16:34:00,42.0,6.0,-100.00,NNE,17,3.0,9.0,22,0.00,,,0.00,636.000000,,2013-04-05 21:34:00,
2013-04-05 16:44:00,42.0,6.0,-100.00,NNE,17,3.0,9.0,22,0.00,,,0.00,636.000000,,2013-04-05 21:44:00,
2013-04-05 16:55:00,42.0,6.0,-100.00,NNE,17,3.0,9.0,22,0.00,,,0.00,636.000000,,2013-04-05 21:55:00,
2013-04-05 17:01:00,41.0,6.0,-100.00,West,260,5.0,9.0,23,0.00,,,0.00,332.000000,,2013-04-05 22:01:00,
2013-04-05 17:23:00,41.0,6.0,-100.00,West,260,5.0,9.0,23,0.00,,,0.00,332.000000,,2013-04-05 22:23:00,
2013-04-05 17:33:00,41.0,6.0,-100.00,West,260,5.0,9.0,23,0.00,,,0.00,332.000000,,2013-04-05 22:33:00,
2013-04-05 17:44:00,41.0,6.0,-100.00,West,260,5.0,9.0,23,0.00,,,0.00,332.000000,,2013-04-05 22:44:00,
2013-04-05 17:53:00,41.0,6.0,-100.00,West,260,5.0,9.0,23,0.00,,,0.00,332.000000,,2013-04-05 22:53:00,
2013-04-05 18:01:00,39.0,7.0,-100.00,SSW,195,6.0,9.0,26,0.00,,,0.00,169.000000,,2013-04-05 23:01:00,
2013-04-05 18:33:00,39.0,7.0,-100.00,SSW,195,6.0,9.0,26,0.00,,,0.00,169.000000,,2013-04-05 23:33:00,
2013-04-05 18:43:00,39.0,7.0,-100.00,SSW,195,6.0,9.0,26,0.00,,,0.00,169.000000,,2013-04-05 23:43:00,
2013-04-05 18:53:00,39.0,7.0,-100.00,SSW,195,6.0,9.0,26,0.00,,,0.00,169.000000,,2013-04-05 23:53:00,
2013-04-05 19:01:00,37.0,8.0,-100.00,South,190,4.0,9.0,30,0.00,,,0.00,62.000000,,2013-04-06 00:01:00,
2013-04-05 19:33:00,37.0,8.0,-100.00,South,190,4.0,9.0,30,0.00,,,0.00,62.000000,,2013-04-06 00:33:00,
2013-04-05 19:43:00,37.0,8.0,-100.00,South,190,4.0,9.0,30,0.00,,,0.00,62.000000,,2013-04-06 00:43:00,
2013-04-05 19:52:00,37.0,8.0,-100.00,South,190,4.0,9.0,30,0.00,,,0.00,62.000000,,2013-04-06 00:52:00,
2013-04-05 20:01:00,33.0,13.0,-100.00,East,83,3.0,6.0,44,0.00,,,0.00,7.000000,,2013-04-06 01:01:00,
2013-04-05 20:23:00,33.0,13.0,-100.00,East,83,3.0,6.0,44,0.00,,,0.00,7.000000,,2013-04-06 01:23:00,
2013-04-05 20:33:00,33.0,13.0,-100.00,East,83,3.0,6.0,44,0.00,,,0.00,7.000000,,2013-04-06 01:33:00,
2013-04-05 20:43:00,33.0,13.0,-100.00,East,83,3.0,6.0,44,0.00,,,0.00,7.000000,,2013-04-06 01:43:00,
2013-04-05 20:53:00,33.0,13.0,-100.00,East,83,3.0,6.0,44,0.00,,,0.00,7.000000,,2013-04-06 01:53:00,
2013-04-05 21:01:00,31.0,15.0,-100.00,East,97,4.0,5.0,50,0.00,,,0.00,0.000000,,2013-04-06 02:01:00,
2013-04-05 21:23:00,31.0,15.0,-100.00,East,97,4.0,5.0,50,0.00,,,0.00,0.000000,,2013-04-06 02:23:00,
2013-04-05 21:33:00,31.0,15.0,-100.00,East,97,4.0,5.0,50,0.00,,,0.00,0.000000,,2013-04-06 02:33:00,
2013-04-05 21:43:00,31.0,15.0,-100.00,East,97,4.0,5.0,50,0.00,,,0.00,0.000000,,2013-04-06 02:43:00,
2013-04-05 21:52:00,31.0,15.0,-100.00,East,97,4.0,5.0,50,0.00,,,0.00,0.000000,,2013-04-06 02:52:00,
2013-04-05 22:01:00,31.0,16.0,-100.00,ESE,121,1.0,5.0,53,0.00,,,0.00,0.000000,,2013-04-06 03:01:00,
2013-04-05 22:34:00,31.0,16.0,-100.00,ESE,121,1.0,5.0,53,0.00,,,0.00,0.000000,,2013-04-06 03:34:00,
2013-04-05 22:43:00,31.0,16.0,-100.00,ESE,121,1.0,5.0,53,0.00,,,0.00,0.000000,,2013-04-06 03:43:00,
2013-04-05 22:54:00,31.0,16.0,-100.00,ESE,121,1.0,5.0,53,0.00,,,0.00,0.000000,,2013-04-06 03:54:00,
2013-04-05 23:01:00,31.0,20.0,-100.00,SSW,203,0.0,2.0,63,0.00,,,0.00,0.000000,,2013-04-06 04:01:00,
2013-04-05 23:33:00,31.0,20.0,-100.00,SSW,203,0.0,2.0,63,0.00,,,0.00,0.000000,,2013-04-06 04:33:00,
2013-04-05 23:43:00,31.0,20.0,-100.00,SSW,203,0.0,2.0,63,0.00,,,0.00,0.000000,,2013-04-06 04:43:00,
2013-04-05 23:53:00,31.0,20.0,-100.00,SSW,203,0.0,2.0,63,0.00,,,0.00,0.000000,,2013-04-06 04:53:00,